createdAt,value
2022-10-06T00:01:10.311Z,85.33
2022-10-06T00:03:32.781Z,85.05
2022-10-06T00:06:02.377Z,86.05
2022-10-06T00:08:24.975Z,85.91
2022-10-06T00:10:47.579Z,86.31
2022-10-06T00:13:10.055Z,86.39
2022-10-06T00:15:33.030Z,86.61
2022-10-06T00:17:56.349Z,86.38
2022-10-06T00:20:18.929Z,87.23
2022-10-06T00:22:44.104Z,87.20
2022-10-06T00:25:07.077Z,86.93
2022-10-06T00:27:41.042Z,87.24
2022-10-06T00:30:05.143Z,87.31
2022-10-06T00:32:27.502Z,87.28
2022-10-06T00:34:49.840Z,87.43
2022-10-06T00:37:12.204Z,87.15
2022-10-06T00:39:34.668Z,88.63
2022-10-06T00:41:57.092Z,88.37
2022-10-06T00:44:19.488Z,87.94
2022-10-06T00:46:53.524Z,88.62
2022-10-06T00:49:35.777Z,88.85
2022-10-06T00:52:05.828Z,88.74
2022-10-06T00:54:28.672Z,88.88
2022-10-06T00:56:50.976Z,88.51
2022-10-06T00:59:15.477Z,88.81
2022-10-06T01:01:38.035Z,89.03
2022-10-06T01:04:05.473Z,89.34
2022-10-06T01:06:27.919Z,89.25
2022-10-06T01:08:50.300Z,89.32
2022-10-06T01:11:14.475Z,89.74
2022-10-06T01:13:36.919Z,90.17
2022-10-06T01:16:22.703Z,90.86
2022-10-06T01:18:45.236Z,90.24
2022-10-06T01:21:14.945Z,91.14
2022-10-06T01:23:37.453Z,90.09
2022-10-06T01:25:59.930Z,90.64
2022-10-06T01:28:22.366Z,90.87
2022-10-06T01:30:52.839Z,91.08
2022-10-06T01:33:15.367Z,91.27
2022-10-06T01:35:38.085Z,91.44
2022-10-06T01:38:00.466Z,91.71
2022-10-06T01:40:22.902Z,91.56
2022-10-06T01:42:45.231Z,91.69
2022-10-06T01:45:08.191Z,92.00
2022-10-06T01:47:30.588Z,91.42
2022-10-06T01:49:53.015Z,91.92
2022-10-06T01:52:15.354Z,91.87
2022-10-06T01:54:37.798Z,91.83
2022-10-06T01:57:00.183Z,92.49
2022-10-06T01:59:22.824Z,92.13
2022-10-06T02:01:45.206Z,92.00
2022-10-06T02:04:07.993Z,92.54
2022-10-06T02:06:30.506Z,92.85
2022-10-06T02:08:52.966Z,92.60
2022-10-06T02:11:15.380Z,92.83
2022-10-06T02:13:38.142Z,92.89
2022-10-06T02:16:00.653Z,93.73
2022-10-06T02:18:23.005Z,93.22
2022-10-06T02:20:45.462Z,93.61
2022-10-06T02:23:07.847Z,93.70
2022-10-06T02:25:30.219Z,93.36
2022-10-06T02:27:54.060Z,93.40
2022-10-06T02:30:16.658Z,93.24
2022-10-06T02:32:40.355Z,94.58
2022-10-06T02:35:03.910Z,93.90
2022-10-06T02:37:26.357Z,94.52
2022-10-06T02:39:48.809Z,94.48
2022-10-06T02:42:11.228Z,94.64
2022-10-06T02:44:33.677Z,94.31
2022-10-06T02:46:56.413Z,95.21
2022-10-06T02:49:18.946Z,95.14
2022-10-06T02:51:41.403Z,94.97
2022-10-06T02:54:03.896Z,94.69
2022-10-06T02:56:26.589Z,95.57
2022-10-06T02:58:50.404Z,95.49
2022-10-06T03:01:26.329Z,95.50
2022-10-06T03:03:48.724Z,95.16
2022-10-06T03:06:23.953Z,94.90
2022-10-06T03:08:46.319Z,95.11
2022-10-06T03:11:08.718Z,95.48
2022-10-06T03:13:31.358Z,96.05
2022-10-06T03:15:53.868Z,96.77
2022-10-06T03:18:16.369Z,96.32
2022-10-06T03:20:38.773Z,95.89
2022-10-06T03:23:01.179Z,96.51
2022-10-06T03:25:23.624Z,96.25
2022-10-06T03:27:46.007Z,96.96
2022-10-06T03:30:09.759Z,96.21
2022-10-06T03:32:32.116Z,96.32
2022-10-06T03:34:54.516Z,96.70
2022-10-06T03:37:19.179Z,97.39
2022-10-06T03:39:41.778Z,96.41
2022-10-06T03:42:04.291Z,96.96
2022-10-06T03:44:26.683Z,97.57
2022-10-06T03:46:49.187Z,98.17
2022-10-06T03:49:11.690Z,98.33
2022-10-06T03:51:39.887Z,98.26
2022-10-06T03:54:02.314Z,98.15
2022-10-06T03:56:32.991Z,98.07
2022-10-06T03:58:57.902Z,96.99
2022-10-06T04:01:32.328Z,97.93
2022-10-06T04:03:55.714Z,98.40
2022-10-06T04:06:19.259Z,98.98
2022-10-06T04:08:41.735Z,98.52
2022-10-06T04:11:16.067Z,98.48
2022-10-06T04:13:39.313Z,98.02
2022-10-06T04:16:31.792Z,99.18
2022-10-06T04:19:02.047Z,99.02
2022-10-06T04:21:24.595Z,97.96
2022-10-06T04:23:47.151Z,99.19
2022-10-06T04:26:16.355Z,98.94
2022-10-06T04:28:39.909Z,99.16
2022-10-06T04:31:02.519Z,99.18
2022-10-06T04:33:05.180Z,99.14
2022-10-06T04:35:08.471Z,99.29
2022-10-06T04:37:10.852Z,99.11
2022-10-06T04:39:13.115Z,99.54
2022-10-06T04:41:17.539Z,99.55
2022-10-06T04:43:19.652Z,99.72
2022-10-06T04:45:21.696Z,99.47
2022-10-06T04:47:23.723Z,99.85
2022-10-06T04:49:25.757Z,99.46
2022-10-06T04:51:28.252Z,99.01
2022-10-06T04:53:30.933Z,99.58
2022-10-06T04:55:32.927Z,99.61
2022-10-06T04:57:34.995Z,99.39
2022-10-06T04:59:55.718Z,99.46
2022-10-06T05:01:58.184Z,99.64
2022-10-06T05:04:01.358Z,99.63
2022-10-06T05:06:11.413Z,99.46
2022-10-06T05:08:13.663Z,100.00
2022-10-06T05:10:15.821Z,100.00
2022-10-06T05:12:17.844Z,100.00
2022-10-06T05:14:19.886Z,99.78
2022-10-06T05:16:22.417Z,100.00
2022-10-06T05:18:24.561Z,100.00
2022-10-06T05:20:26.656Z,99.63
2022-10-06T05:22:28.890Z,99.86
2022-10-06T05:24:30.917Z,99.57
2022-10-06T05:26:34.840Z,99.66
2022-10-06T05:28:37.462Z,100.00
2022-10-06T05:31:04.275Z,100.00
2022-10-06T05:33:07.537Z,99.96
2022-10-06T05:35:09.931Z,100.00
2022-10-06T05:37:12.013Z,100.00
2022-10-06T05:39:23.657Z,99.83
2022-10-06T05:41:30.570Z,100.00
2022-10-06T05:43:33.487Z,99.78
2022-10-06T05:45:35.583Z,100.00
2022-10-06T05:47:37.689Z,100.00
2022-10-06T05:49:39.770Z,100.00
2022-10-06T05:51:41.905Z,99.81
2022-10-06T05:53:44.391Z,99.45
2022-10-06T05:55:46.458Z,99.64
2022-10-06T05:57:48.525Z,99.58
2022-10-06T05:59:50.593Z,99.66
2022-10-06T06:01:53.240Z,99.33
2022-10-06T06:04:03.356Z,99.60
2022-10-06T06:06:15.329Z,99.22
2022-10-06T06:08:17.396Z,98.67
2022-10-06T06:10:19.503Z,98.50
2022-10-06T06:12:21.605Z,99.19
2022-10-06T06:14:42.315Z,98.68
2022-10-06T06:16:44.725Z,98.38
2022-10-06T06:18:46.909Z,98.31
2022-10-06T06:20:59.948Z,98.09
2022-10-06T06:23:02.086Z,97.71
2022-10-06T06:25:04.377Z,97.63
2022-10-06T06:27:06.459Z,97.14
2022-10-06T06:29:08.509Z,97.52
2022-10-06T06:31:16.269Z,96.82
2022-10-06T06:33:22.495Z,96.45
2022-10-06T06:35:24.817Z,96.08
2022-10-06T06:37:26.898Z,95.73
2022-10-06T06:39:29.012Z,95.29
2022-10-06T06:41:33.339Z,94.84
2022-10-06T06:43:35.635Z,94.07
2022-10-06T06:45:37.789Z,93.88
2022-10-06T06:47:39.994Z,93.88
2022-10-06T06:49:43.131Z,93.58
2022-10-06T06:51:49.829Z,93.16
2022-10-06T06:53:53.194Z,93.22
2022-10-06T06:55:55.268Z,92.90
2022-10-06T06:57:57.302Z,92.63
2022-10-06T07:00:08.076Z,92.24
2022-10-06T07:02:11.956Z,92.38
2022-10-06T07:04:15.883Z,91.98
2022-10-06T07:06:18.209Z,91.69
2022-10-06T07:08:20.471Z,91.52
2022-10-06T07:10:22.490Z,91.61
2022-10-06T07:12:25.419Z,91.50
2022-10-06T07:14:27.435Z,91.24
2022-10-06T07:16:49.430Z,91.10
2022-10-06T07:19:10.171Z,91.25
2022-10-06T07:21:34.180Z,90.98
2022-10-06T07:23:55.011Z,90.96
2022-10-06T07:25:57.043Z,90.62
2022-10-06T07:27:59.123Z,90.43
2022-10-06T07:30:01.220Z,90.45
2022-10-06T07:32:03.197Z,90.45
2022-10-06T07:34:06.573Z,89.85
2022-10-06T07:36:09.162Z,89.78
2022-10-06T07:38:27.622Z,89.57
2022-10-06T07:40:29.632Z,89.33
2022-10-06T07:42:47.855Z,88.60
2022-10-06T07:45:08.462Z,88.31
2022-10-06T07:47:10.674Z,87.89
2022-10-06T07:49:12.678Z,87.05
2022-10-06T07:51:17.059Z,85.71
2022-10-06T07:53:19.156Z,85.03
2022-10-06T07:55:21.225Z,84.67
2022-10-06T07:57:23.300Z,84.72
2022-10-06T07:59:25.307Z,83.61
2022-10-06T08:01:29.536Z,83.87
2022-10-06T08:03:32.982Z,83.80
2022-10-06T08:05:35.013Z,83.59
2022-10-06T08:07:37.069Z,82.78
2022-10-06T08:09:39.103Z,83.41
2022-10-06T08:11:41.206Z,83.85
2022-10-06T08:13:44.990Z,83.77
2022-10-06T08:15:49.187Z,84.40
2022-10-06T08:17:54.172Z,84.04
2022-10-06T08:19:56.337Z,84.07
2022-10-06T08:22:02.495Z,83.46
2022-10-06T08:24:06.960Z,83.53
2022-10-06T08:26:10.525Z,82.31
2022-10-06T08:28:13.177Z,81.46
2022-10-06T08:30:15.226Z,80.79
2022-10-06T08:32:20.049Z,80.63
2022-10-06T08:34:22.092Z,79.38
2022-10-06T08:36:30.853Z,78.68
2022-10-06T08:38:33.798Z,78.28
2022-10-06T08:40:35.838Z,78.55
2022-10-06T08:42:42.566Z,77.44
2022-10-06T08:45:02.963Z,76.90
2022-10-06T08:47:27.706Z,77.61
2022-10-06T08:49:41.014Z,75.88
2022-10-06T08:51:57.486Z,75.18
2022-10-06T08:54:12.806Z,75.25
2022-10-06T08:56:19.254Z,73.73
2022-10-06T08:58:33.316Z,73.61
2022-10-06T09:00:37.685Z,74.09
2022-10-06T09:02:43.809Z,73.77
2022-10-06T09:04:48.483Z,74.25
2022-10-06T09:07:14.388Z,73.04
2022-10-06T09:09:45.798Z,72.32
2022-10-06T09:12:16.685Z,72.68
2022-10-06T09:14:37.630Z,72.04
2022-10-06T09:16:41.055Z,71.07
2022-10-06T09:19:07.787Z,69.96
2022-10-06T09:21:36.924Z,67.94
2022-10-06T09:23:47.648Z,67.94
2022-10-06T09:25:49.893Z,67.13
2022-10-06T09:28:00.000Z,65.83
2022-10-06T09:30:02.715Z,66.21
2022-10-06T09:32:06.827Z,63.34
2022-10-06T09:34:39.607Z,60.38
2022-10-06T09:37:09.277Z,60.24
2022-10-06T09:39:11.374Z,61.02
2022-10-06T09:41:13.854Z,60.45
2022-10-06T09:43:29.305Z,58.08
2022-10-06T09:45:31.579Z,61.23
2022-10-06T09:47:45.990Z,56.84
2022-10-06T09:50:02.850Z,55.32
2022-10-06T09:52:13.098Z,53.93
2022-10-06T09:54:15.494Z,55.41
2022-10-06T09:56:19.402Z,54.85
2022-10-06T09:58:34.134Z,52.71
2022-10-06T10:00:56.562Z,51.83
2022-10-06T10:03:09.716Z,50.95
2022-10-06T10:05:21.528Z,49.70
2022-10-06T10:07:28.766Z,49.78
2022-10-06T10:09:30.837Z,50.21
2022-10-06T10:11:51.622Z,51.81
2022-10-06T10:13:53.617Z,50.97
2022-10-06T10:15:59.646Z,47.92
2022-10-06T10:18:03.753Z,47.94
2022-10-06T10:20:39.462Z,47.04
2022-10-06T10:22:41.514Z,49.64
2022-10-06T10:25:13.978Z,45.60
2022-10-06T10:27:33.655Z,44.83
2022-10-06T10:29:59.617Z,43.40
2022-10-06T10:32:11.958Z,42.78
2022-10-06T10:34:44.298Z,41.70
2022-10-06T10:36:53.273Z,41.36
2022-10-06T10:38:55.296Z,41.31
2022-10-06T10:41:20.090Z,39.92
2022-10-06T10:43:32.100Z,38.85
2022-10-06T10:45:36.199Z,38.83
2022-10-06T10:47:39.498Z,39.17
2022-10-06T10:49:44.465Z,37.50
2022-10-06T10:51:52.413Z,37.43
2022-10-06T10:54:03.416Z,36.31
2022-10-06T10:56:08.022Z,37.00
2022-10-06T10:58:45.683Z,35.81
2022-10-06T11:00:52.127Z,36.55
2022-10-06T11:02:58.534Z,35.68
2022-10-06T11:05:12.756Z,35.54
2022-10-06T11:07:39.179Z,35.93
2022-10-06T11:09:54.121Z,36.38
2022-10-06T11:12:20.210Z,36.04
2022-10-06T11:14:43.063Z,35.79
2022-10-06T11:17:16.303Z,35.17
2022-10-06T11:19:49.814Z,35.37
2022-10-06T11:22:47.342Z,34.10
2022-10-06T11:25:35.221Z,34.47
2022-10-06T11:28:26.234Z,34.17
2022-10-06T11:30:30.546Z,35.91
2022-10-06T11:33:08.028Z,34.73
2022-10-06T11:35:27.046Z,34.14
2022-10-06T11:37:54.120Z,34.16
2022-10-06T11:40:44.675Z,33.35
2022-10-06T11:43:25.300Z,32.60
2022-10-06T11:45:59.311Z,32.69
2022-10-06T11:48:24.351Z,31.33
2022-10-06T11:50:55.646Z,30.62
2022-10-06T11:52:57.685Z,32.42
2022-10-06T11:55:16.235Z,30.63
2022-10-06T11:57:29.392Z,30.75
2022-10-06T11:59:32.889Z,30.68
2022-10-06T12:01:35.215Z,30.45
2022-10-06T12:03:48.041Z,30.47
2022-10-06T12:05:56.265Z,33.14
2022-10-06T12:07:59.214Z,29.65
2022-10-06T12:10:30.059Z,28.86
2022-10-06T12:12:33.409Z,29.22
2022-10-06T12:17:21.443Z,28.56
2022-10-06T12:19:31.556Z,28.95
2022-10-06T12:21:50.430Z,29.42
2022-10-06T12:24:32.318Z,30.36
2022-10-06T12:26:57.911Z,31.00
2022-10-06T12:29:23.196Z,32.08
2022-10-06T12:31:46.607Z,32.09
2022-10-06T12:33:48.711Z,32.13
2022-10-06T12:35:50.771Z,33.50
2022-10-06T12:38:04.678Z,32.75
2022-10-06T12:40:55.545Z,31.57
2022-10-06T12:43:21.600Z,31.67
2022-10-06T12:45:23.705Z,32.18
2022-10-06T12:47:42.084Z,31.58
2022-10-06T12:49:54.518Z,31.79
2022-10-06T12:51:59.040Z,32.76
2022-10-06T12:54:12.375Z,33.11
2022-10-06T12:56:42.088Z,33.69
2022-10-06T12:58:44.125Z,34.31
2022-10-06T13:00:46.641Z,34.45
2022-10-06T13:02:48.651Z,33.14
2022-10-06T13:05:02.947Z,32.64
2022-10-06T13:07:31.177Z,30.84
2022-10-06T13:09:33.273Z,30.25
2022-10-06T13:11:35.443Z,30.25
2022-10-06T13:13:37.953Z,30.03
2022-10-06T13:15:41.671Z,29.60
2022-10-06T13:18:09.835Z,28.40
2022-10-06T13:20:58.245Z,28.27
2022-10-06T13:23:25.000Z,28.52
2022-10-06T13:25:41.502Z,29.11
2022-10-06T13:27:51.907Z,29.48
2022-10-06T13:30:21.879Z,30.26
2022-10-06T13:32:23.961Z,30.30
2022-10-06T13:34:36.033Z,30.17
2022-10-06T13:36:39.931Z,30.78
2022-10-06T13:38:42.213Z,30.99
2022-10-06T13:40:45.544Z,30.97
2022-10-06T13:42:47.876Z,31.66
2022-10-06T13:45:14.277Z,31.20
2022-10-06T13:47:21.666Z,31.29
2022-10-06T13:49:33.314Z,31.45
2022-10-06T13:51:35.459Z,32.01
2022-10-06T13:53:37.532Z,32.08
2022-10-06T13:55:39.560Z,32.25
2022-10-06T13:57:51.935Z,31.56
2022-10-06T14:00:23.200Z,31.73
2022-10-06T14:02:32.441Z,31.55
2022-10-06T14:04:37.402Z,31.34
2022-10-06T14:07:12.756Z,30.98
2022-10-06T14:09:21.342Z,30.83
2022-10-06T14:11:29.818Z,30.29
2022-10-06T14:13:40.533Z,31.16
2022-10-06T14:15:53.634Z,30.85
2022-10-06T14:18:01.600Z,30.32
2022-10-06T14:20:03.808Z,31.35
2022-10-06T14:22:06.421Z,31.63
2022-10-06T14:24:18.981Z,31.82
2022-10-06T14:26:29.972Z,31.85
2022-10-06T14:28:32.049Z,31.67
2022-10-06T14:30:34.071Z,32.16
2022-10-06T14:32:38.813Z,31.89
2022-10-06T14:34:42.065Z,32.24
2022-10-06T14:36:46.321Z,32.32
2022-10-06T14:38:49.465Z,32.36
2022-10-06T14:40:51.591Z,32.95
2022-10-06T14:42:53.625Z,32.78
2022-10-06T14:44:55.653Z,32.53
2022-10-06T14:46:57.986Z,32.31
2022-10-06T14:49:00.485Z,32.92
2022-10-06T14:51:04.177Z,32.81
2022-10-06T14:53:06.376Z,32.96
2022-10-06T14:55:09.149Z,33.49
2022-10-06T14:57:11.184Z,34.13
2022-10-06T14:59:17.185Z,34.39
2022-10-06T15:01:21.880Z,34.81
2022-10-06T15:03:24.112Z,35.11
2022-10-06T15:05:26.248Z,35.35
2022-10-06T15:07:46.501Z,35.75
2022-10-06T15:09:48.609Z,36.00
2022-10-06T15:11:51.836Z,36.67
2022-10-06T15:13:57.013Z,37.10
2022-10-06T15:15:59.232Z,36.66
2022-10-06T15:18:03.744Z,36.86
2022-10-06T15:20:07.462Z,36.95
2022-10-06T15:22:10.105Z,37.03
2022-10-06T15:24:14.210Z,37.68
2022-10-06T15:26:34.426Z,37.65
2022-10-06T15:28:55.172Z,38.29
2022-10-06T15:30:57.351Z,38.50
2022-10-06T15:33:01.763Z,38.65
2022-10-06T15:35:03.876Z,39.04
2022-10-06T15:37:05.968Z,39.28
2022-10-06T15:39:16.388Z,40.14
2022-10-06T15:41:19.112Z,40.68
2022-10-06T15:43:41.013Z,41.42
2022-10-06T15:45:53.868Z,41.89
2022-10-06T15:47:55.903Z,41.48
2022-10-06T15:49:57.976Z,41.64
2022-10-06T15:52:03.288Z,42.18
2022-10-06T15:54:05.966Z,42.21
2022-10-06T15:56:09.341Z,42.60
2022-10-06T15:58:11.394Z,42.92
2022-10-06T16:00:14.065Z,43.24
2022-10-06T16:02:17.381Z,44.65
2022-10-06T16:04:35.622Z,44.35
2022-10-06T16:06:54.576Z,44.16
2022-10-06T16:08:56.643Z,44.92
2022-10-06T16:10:59.529Z,44.67
2022-10-06T16:13:01.540Z,44.85
2022-10-06T16:15:03.918Z,44.97
2022-10-06T16:17:24.847Z,45.58
2022-10-06T16:19:47.251Z,46.06
2022-10-06T16:22:13.225Z,46.72
2022-10-06T16:24:35.553Z,46.96
2022-10-06T16:26:59.862Z,47.24
2022-10-06T16:29:22.275Z,46.95
2022-10-06T16:31:44.724Z,47.62
2022-10-06T16:34:07.622Z,46.93
2022-10-06T16:36:30.152Z,47.84
2022-10-06T16:38:53.684Z,47.92
2022-10-06T16:41:16.017Z,47.86
2022-10-06T16:43:43.192Z,49.59
2022-10-06T16:46:17.351Z,49.82
2022-10-06T16:48:42.153Z,49.60
2022-10-06T16:51:26.199Z,50.90
2022-10-06T16:54:02.898Z,50.55
2022-10-06T16:56:31.129Z,50.80
2022-10-06T16:59:01.452Z,51.39
2022-10-06T17:01:28.813Z,51.07
2022-10-06T17:04:08.055Z,51.99
2022-10-06T17:06:31.078Z,49.96
2022-10-06T17:08:53.636Z,50.29
2022-10-06T17:11:21.139Z,51.48
2022-10-06T17:13:45.356Z,52.08
2022-10-06T17:16:16.294Z,53.03
2022-10-06T17:18:38.815Z,52.10
2022-10-06T17:21:11.457Z,51.81
2022-10-06T17:23:45.254Z,53.44
2022-10-06T17:26:17.475Z,53.93
2022-10-06T17:28:42.144Z,53.38
2022-10-06T17:31:06.039Z,53.12
2022-10-06T17:33:32.562Z,53.76
2022-10-06T17:35:54.884Z,53.82
2022-10-06T17:38:17.225Z,55.74
2022-10-06T17:40:19.318Z,56.41
2022-10-06T17:42:21.375Z,54.23
2022-10-06T17:44:26.405Z,55.73
2022-10-06T17:46:28.568Z,55.89
2022-10-06T17:48:30.685Z,55.68
2022-10-06T17:50:33.259Z,55.76
2022-10-06T17:52:37.959Z,55.83
2022-10-06T17:54:41.547Z,55.59
2022-10-06T17:56:44.137Z,56.50
2022-10-06T17:58:58.181Z,58.26
2022-10-06T18:01:05.387Z,57.59
2022-10-06T18:03:09.073Z,57.44
2022-10-06T18:05:11.242Z,56.87
2022-10-06T18:07:13.314Z,57.57
2022-10-06T18:09:16.004Z,57.82
2022-10-06T18:11:33.951Z,59.68
2022-10-06T18:13:36.035Z,57.32
2022-10-06T18:15:38.189Z,59.49
2022-10-06T18:17:41.523Z,57.26
2022-10-06T18:19:44.196Z,57.60
2022-10-06T18:21:47.874Z,60.08
2022-10-06T18:23:50.093Z,58.15
2022-10-06T18:25:52.134Z,58.83
2022-10-06T18:27:54.963Z,59.11
2022-10-06T18:29:57.017Z,59.10
2022-10-06T18:32:25.820Z,59.87
2022-10-06T18:36:43.554Z,58.80
2022-10-06T18:38:46.949Z,59.74
2022-10-06T18:41:03.229Z,60.69
2022-10-06T18:43:05.294Z,59.59
2022-10-06T18:45:26.952Z,60.02
2022-10-06T18:47:48.023Z,60.06
2022-10-06T18:49:50.290Z,59.83
2022-10-06T18:51:58.363Z,60.58
2022-10-06T18:54:03.647Z,60.52
2022-10-06T18:56:07.259Z,60.00
2022-10-06T18:58:09.581Z,60.01
2022-10-06T19:00:12.103Z,60.43
2022-10-06T19:02:14.292Z,60.18
2022-10-06T19:04:20.227Z,60.39
2022-10-06T19:06:24.047Z,60.36
2022-10-06T19:08:29.397Z,61.36
2022-10-06T19:10:33.698Z,61.96
2022-10-06T19:12:35.868Z,60.27
2022-10-06T19:14:43.034Z,60.49
2022-10-06T19:16:46.575Z,60.97
2022-10-06T19:18:48.805Z,60.86
2022-10-06T19:20:51.720Z,63.10
2022-10-06T19:22:54.320Z,61.88
2022-10-06T19:24:56.458Z,62.35
2022-10-06T19:26:59.246Z,63.48
2022-10-06T19:29:02.597Z,62.39
2022-10-06T19:31:08.363Z,63.93
2022-10-06T19:33:10.500Z,62.65
2022-10-06T19:35:13.293Z,63.78
2022-10-06T19:37:15.596Z,65.39
2022-10-06T19:39:17.820Z,63.13
2022-10-06T19:41:38.516Z,63.28
2022-10-06T19:43:40.709Z,62.68
2022-10-06T19:45:43.125Z,63.19
2022-10-06T19:47:46.736Z,64.36
2022-10-06T19:49:49.483Z,62.54
2022-10-06T19:51:51.856Z,64.14
2022-10-06T19:53:53.875Z,64.87
2022-10-06T19:56:01.804Z,65.02
2022-10-06T19:58:03.847Z,65.49
2022-10-06T20:00:07.240Z,65.19
2022-10-06T20:02:10.919Z,65.82
2022-10-06T20:04:13.180Z,65.07
2022-10-06T20:06:15.471Z,65.45
2022-10-06T20:08:17.771Z,65.63
2022-10-06T20:10:19.878Z,65.21
2022-10-06T20:12:24.893Z,67.17
2022-10-06T20:14:27.627Z,65.67
2022-10-06T20:16:30.972Z,67.19
2022-10-06T20:18:41.029Z,67.33
2022-10-06T20:20:43.070Z,67.01
2022-10-06T20:22:45.535Z,67.80
2022-10-06T20:24:48.078Z,69.10
2022-10-06T20:26:50.745Z,67.76
2022-10-06T20:28:53.443Z,69.32
2022-10-06T20:30:55.520Z,66.58
2022-10-06T20:32:58.179Z,66.90
2022-10-06T20:35:01.966Z,67.35
2022-10-06T20:37:05.141Z,68.22
2022-10-06T20:39:34.890Z,67.10
2022-10-06T20:41:36.946Z,68.69
2022-10-06T20:43:39.384Z,68.63
2022-10-06T20:45:41.577Z,67.36
2022-10-06T20:47:43.818Z,68.23
2022-10-06T20:49:46.070Z,69.30
2022-10-06T20:51:52.184Z,68.86
2022-10-06T20:53:54.490Z,68.67
2022-10-06T20:55:56.606Z,67.31
2022-10-06T20:57:58.693Z,68.12
2022-10-06T21:00:00.733Z,69.72
2022-10-06T21:02:03.453Z,70.15
2022-10-06T21:04:05.599Z,71.05
2022-10-06T21:06:07.674Z,69.64
2022-10-06T21:08:09.747Z,69.85
2022-10-06T21:10:11.926Z,69.23
2022-10-06T21:12:15.671Z,69.93
2022-10-06T21:14:18.284Z,70.17
2022-10-06T21:16:21.671Z,71.19
2022-10-06T21:18:28.071Z,70.27
2022-10-06T21:20:30.153Z,70.90
2022-10-06T21:22:32.337Z,70.84
2022-10-06T21:24:34.469Z,71.67
2022-10-06T21:26:38.654Z,71.41
2022-10-06T21:28:41.170Z,70.97
2022-10-06T21:30:44.281Z,71.00
2022-10-06T21:32:46.455Z,72.32
2022-10-06T21:34:48.620Z,70.99
2022-10-06T21:37:09.131Z,73.06
2022-10-06T21:39:29.730Z,72.47
2022-10-06T21:41:52.127Z,72.67
2022-10-06T21:44:16.549Z,72.83
2022-10-06T21:46:47.383Z,73.07
2022-10-06T21:49:11.390Z,73.43
2022-10-06T21:51:33.929Z,72.04
2022-10-06T21:53:57.044Z,72.56
2022-10-06T21:56:20.001Z,73.44
2022-10-06T21:58:42.424Z,71.39
2022-10-06T22:01:05.985Z,73.54
2022-10-06T22:03:28.403Z,72.89
2022-10-06T22:05:50.880Z,73.26
2022-10-06T22:08:13.454Z,72.96
2022-10-06T22:10:35.893Z,72.21
2022-10-06T22:12:58.263Z,73.76
2022-10-06T22:15:20.724Z,73.72
2022-10-06T22:17:43.359Z,73.62
2022-10-06T22:20:06.953Z,73.07
2022-10-06T22:22:29.353Z,75.65
2022-10-06T22:24:51.716Z,72.98
2022-10-06T22:27:14.079Z,74.00
2022-10-06T22:29:36.521Z,73.52
2022-10-06T22:31:58.982Z,73.79
2022-10-06T22:34:21.483Z,73.74
2022-10-06T22:36:43.870Z,73.69
2022-10-06T22:39:06.404Z,74.89
2022-10-06T22:41:28.893Z,73.44
2022-10-06T22:43:58.269Z,75.07
2022-10-06T22:46:20.728Z,73.37
2022-10-06T22:48:43.181Z,73.11
2022-10-06T22:51:06.013Z,74.35
2022-10-06T22:53:31.009Z,75.73
2022-10-06T22:55:53.465Z,74.59
2022-10-06T22:58:16.199Z,74.25
2022-10-06T23:00:38.747Z,75.70
2022-10-06T23:03:01.202Z,75.31
2022-10-06T23:05:23.670Z,75.46
2022-10-06T23:07:46.735Z,74.69
2022-10-06T23:10:09.535Z,76.51
2022-10-06T23:12:31.921Z,76.04
2022-10-06T23:14:54.271Z,73.92
2022-10-06T23:17:16.624Z,74.86
2022-10-06T23:19:38.982Z,75.02
2022-10-06T23:22:01.348Z,75.53
2022-10-06T23:24:23.707Z,76.88
2022-10-06T23:26:47.181Z,75.69
2022-10-06T23:29:10.354Z,76.22
2022-10-06T23:31:32.778Z,75.66
2022-10-06T23:33:55.377Z,77.54
2022-10-06T23:36:18.032Z,77.38
2022-10-06T23:38:40.631Z,77.35
2022-10-06T23:41:03.145Z,78.10
2022-10-06T23:43:25.593Z,77.35
2022-10-06T23:45:48.023Z,77.78
2022-10-06T23:48:10.537Z,77.28
2022-10-06T23:50:32.898Z,78.37
2022-10-06T23:52:55.239Z,76.57
2022-10-06T23:55:17.645Z,78.52
2022-10-06T23:57:40.053Z,78.39
